BAW84B EBBR-EDDF
Flight info
| Callsign | BAW84B |
|---|---|
| Flight time | 0h 39m |
| Altitude | 23000 |
| Route | SPI4K SPI T180 NIVNU T847 IMCOM IMCOM1A |
| Aircraft | A320/M-SDE3FGIJ1KRWXY/SB1 |
Departure
| Time | 2026-04-16 10:33 |
|---|---|
| Airport | Brussels Airport (EBBR) |
Arrival
| Time | 2026-04-16 11:13 |
|---|---|
| Airport | Frankfurt Main Airport (EDDF) |
| Time | Latitude | Longitude | Altitude | Speed | Heading |
|---|---|---|---|---|---|
| 2026-04-16 10:08 | 50.89996 | 4.48890 | 131 ft | 0 kts | 335° |
| 2026-04-16 10:24 | 50.89995 | 4.48891 | 131 ft | 1 kts | 335° |
| 2026-04-16 10:24 | 50.89974 | 4.48906 | 132 ft | 4 kts | 337° |
| 2026-04-16 10:25 | 50.89949 | 4.48922 | 133 ft | 4 kts | 340° |
| 2026-04-16 10:25 | 50.89923 | 4.48934 | 135 ft | 4 kts | 351° |
| 2026-04-16 10:25 | 50.89898 | 4.48934 | 136 ft | 4 kts | 33° |
| 2026-04-16 10:25 | 50.89891 | 4.48924 | 136 ft | 0 kts | 65° |
| 2026-04-16 10:28 | 50.89896 | 4.48939 | 136 ft | 4 kts | 65° |
| 2026-04-16 10:28 | 50.89915 | 4.49006 | 136 ft | 9 kts | 65° |
| 2026-04-16 10:28 | 50.89945 | 4.49111 | 136 ft | 12 kts | 65° |
| 2026-04-16 10:29 | 50.89982 | 4.49256 | 133 ft | 17 kts | 74° |
| 2026-04-16 10:29 | 50.90035 | 4.49416 | 126 ft | 15 kts | 43° |
| 2026-04-16 10:29 | 50.90147 | 4.49465 | 127 ft | 19 kts | 13° |
| 2026-04-16 10:29 | 50.90292 | 4.49524 | 126 ft | 24 kts | 14° |
| 2026-04-16 10:30 | 50.90463 | 4.49593 | 122 ft | 27 kts | 14° |
| 2026-04-16 10:30 | 50.90648 | 4.49670 | 124 ft | 29 kts | 15° |
| 2026-04-16 10:30 | 50.90784 | 4.49725 | 124 ft | 18 kts | 15° |
| 2026-04-16 10:30 | 50.90889 | 4.49769 | 120 ft | 14 kts | 16° |
| 2026-04-16 10:31 | 50.90961 | 4.49834 | 120 ft | 12 kts | 38° |
| 2026-04-16 10:31 | 50.91048 | 4.49922 | 117 ft | 15 kts | 24° |
| 2026-04-16 10:31 | 50.91130 | 4.49927 | 119 ft | 7 kts | 333° |
| 2026-04-16 10:31 | 50.91136 | 4.49875 | 118 ft | 0 kts | 246° |
| 2026-04-16 10:32 | 50.91135 | 4.49874 | 118 ft | 1 kts | 246° |
| 2026-04-16 10:32 | 50.91117 | 4.49809 | 117 ft | 19 kts | 246° |
| 2026-04-16 10:32 | 50.91031 | 4.49508 | 119 ft | 70 kts | 245° |
| 2026-04-16 10:32 | 50.90601 | 4.48023 | 120 ft | 146 kts | 245° |
| 2026-04-16 10:33 | 50.90301 | 4.46979 | 280 ft | 162 kts | 245° |
| 2026-04-16 10:33 | 50.89842 | 4.45408 | 1119 ft | 154 kts | 244° |
| 2026-04-16 10:33 | 50.89387 | 4.43852 | 1758 ft | 164 kts | 244° |
| 2026-04-16 10:33 | 50.88876 | 4.42121 | 2133 ft | 184 kts | 244° |
| 2026-04-16 10:34 | 50.88299 | 4.40146 | 2540 ft | 210 kts | 244° |
| 2026-04-16 10:34 | 50.87653 | 4.37938 | 3079 ft | 231 kts | 243° |
| 2026-04-16 10:34 | 50.86952 | 4.35552 | 3845 ft | 244 kts | 243° |
| 2026-04-16 10:34 | 50.86235 | 4.33080 | 4798 ft | 250 kts | 242° |
| 2026-04-16 10:35 | 50.85173 | 4.30914 | 5676 ft | 256 kts | 212° |
| 2026-04-16 10:35 | 50.83465 | 4.30208 | 6595 ft | 262 kts | 177° |
| 2026-04-16 10:35 | 50.81738 | 4.31285 | 7487 ft | 273 kts | 142° |
| 2026-04-16 10:35 | 50.80536 | 4.33694 | 8332 ft | 285 kts | 124° |
| 2026-04-16 10:36 | 50.79553 | 4.36445 | 9191 ft | 291 kts | 123° |
| 2026-04-16 10:36 | 50.78500 | 4.39215 | 10067 ft | 294 kts | 126° |
| 2026-04-16 10:36 | 50.77291 | 4.41837 | 10862 ft | 297 kts | 133° |
| 2026-04-16 10:36 | 50.75852 | 4.44315 | 11290 ft | 317 kts | 137° |
| 2026-04-16 10:37 | 50.74419 | 4.47147 | 11576 ft | 343 kts | 125° |
| 2026-04-16 10:37 | 50.73375 | 4.50623 | 12154 ft | 357 kts | 112° |
| 2026-04-16 10:37 | 50.72655 | 4.54418 | 12884 ft | 364 kts | 107° |
| 2026-04-16 10:37 | 50.72073 | 4.58280 | 13598 ft | 369 kts | 105° |
| 2026-04-16 10:38 | 50.71480 | 4.62303 | 14285 ft | 374 kts | 105° |
| 2026-04-16 10:38 | 50.70852 | 4.66260 | 14897 ft | 379 kts | 107° |
| 2026-04-16 10:38 | 50.70138 | 4.70345 | 15499 ft | 383 kts | 108° |
| 2026-04-16 10:38 | 50.69370 | 4.74397 | 16103 ft | 388 kts | 109° |
| 2026-04-16 10:39 | 50.68557 | 4.78481 | 16717 ft | 393 kts | 109° |
| 2026-04-16 10:39 | 50.67730 | 4.82545 | 17308 ft | 398 kts | 109° |
| 2026-04-16 10:39 | 50.66863 | 4.86778 | 17911 ft | 403 kts | 109° |
| 2026-04-16 10:39 | 50.65996 | 4.91005 | 18503 ft | 408 kts | 109° |
| 2026-04-16 10:40 | 50.65125 | 4.95283 | 19034 ft | 412 kts | 109° |
| 2026-04-16 10:40 | 50.64255 | 4.99608 | 19588 ft | 416 kts | 109° |
| 2026-04-16 10:40 | 50.63382 | 5.03978 | 20156 ft | 420 kts | 109° |
| 2026-04-16 10:40 | 50.62503 | 5.08389 | 20711 ft | 424 kts | 109° |
| 2026-04-16 10:41 | 50.61612 | 5.12832 | 21230 ft | 427 kts | 109° |
| 2026-04-16 10:41 | 50.60707 | 5.17307 | 21781 ft | 430 kts | 109° |
| 2026-04-16 10:41 | 50.59795 | 5.21797 | 22307 ft | 433 kts | 109° |
| 2026-04-16 10:41 | 50.58872 | 5.26330 | 22825 ft | 437 kts | 109° |
| 2026-04-16 10:42 | 50.57941 | 5.30895 | 23166 ft | 440 kts | 109° |
| 2026-04-16 10:42 | 50.57004 | 5.35494 | 23234 ft | 444 kts | 109° |
| 2026-04-16 10:42 | 50.56053 | 5.40135 | 23235 ft | 446 kts | 109° |
| 2026-04-16 10:42 | 50.55097 | 5.44777 | 23237 ft | 447 kts | 109° |
| 2026-04-16 10:43 | 50.54139 | 5.49427 | 23237 ft | 447 kts | 109° |
| 2026-04-16 10:43 | 50.53181 | 5.54070 | 23237 ft | 447 kts | 109° |
| 2026-04-16 10:43 | 50.52219 | 5.58715 | 23226 ft | 447 kts | 109° |
| 2026-04-16 10:43 | 50.51257 | 5.63366 | 23225 ft | 448 kts | 108° |
| 2026-04-16 10:44 | 50.50334 | 5.68032 | 23226 ft | 447 kts | 108° |
| 2026-04-16 10:44 | 50.49460 | 5.72710 | 23220 ft | 447 kts | 107° |
| 2026-04-16 10:44 | 50.48610 | 5.77400 | 23214 ft | 446 kts | 107° |
| 2026-04-16 10:44 | 50.47764 | 5.82091 | 23207 ft | 446 kts | 107° |
| 2026-04-16 10:45 | 50.46909 | 5.86771 | 23209 ft | 446 kts | 107° |
| 2026-04-16 10:45 | 50.46042 | 5.91445 | 23212 ft | 446 kts | 107° |
| 2026-04-16 10:45 | 50.45166 | 5.96109 | 23203 ft | 446 kts | 107° |
| 2026-04-16 10:45 | 50.44280 | 6.00773 | 23202 ft | 446 kts | 108° |
| 2026-04-16 10:46 | 50.43391 | 6.05421 | 23199 ft | 446 kts | 107° |
| 2026-04-16 10:46 | 50.42499 | 6.10080 | 23200 ft | 446 kts | 107° |
| 2026-04-16 10:46 | 50.41606 | 6.14741 | 23192 ft | 446 kts | 107° |
| 2026-04-16 10:46 | 50.40716 | 6.19388 | 23189 ft | 446 kts | 107° |
| 2026-04-16 10:47 | 50.39820 | 6.24044 | 23192 ft | 446 kts | 107° |
| 2026-04-16 10:47 | 50.38923 | 6.28700 | 23185 ft | 446 kts | 107° |
| 2026-04-16 10:47 | 50.38027 | 6.33350 | 23177 ft | 446 kts | 107° |
| 2026-04-16 10:47 | 50.37130 | 6.37998 | 23175 ft | 446 kts | 107° |
| 2026-04-16 10:48 | 50.36391 | 6.42718 | 23182 ft | 446 kts | 99° |
| 2026-04-16 10:48 | 50.36052 | 6.47544 | 23185 ft | 446 kts | 95° |
| 2026-04-16 10:48 | 50.35769 | 6.52378 | 23177 ft | 446 kts | 95° |
| 2026-04-16 10:48 | 50.35473 | 6.57216 | 23183 ft | 446 kts | 95° |
| 2026-04-16 10:49 | 50.35164 | 6.62053 | 23180 ft | 446 kts | 95° |
| 2026-04-16 10:49 | 50.34847 | 6.66886 | 23188 ft | 447 kts | 95° |
| 2026-04-16 10:49 | 50.34525 | 6.71727 | 23203 ft | 447 kts | 95° |
| 2026-04-16 10:49 | 50.34205 | 6.76563 | 23207 ft | 447 kts | 95° |
| 2026-04-16 10:50 | 50.33889 | 6.81397 | 23206 ft | 447 kts | 96° |
| 2026-04-16 10:50 | 50.33307 | 6.86166 | 23211 ft | 447 kts | 105° |
| 2026-04-16 10:50 | 50.32274 | 6.90725 | 23100 ft | 440 kts | 115° |
| 2026-04-16 10:50 | 50.31003 | 6.95048 | 22588 ft | 435 kts | 116° |
| 2026-04-16 10:51 | 50.29730 | 6.99315 | 22081 ft | 431 kts | 116° |
| 2026-04-16 10:51 | 50.28477 | 7.03487 | 21609 ft | 427 kts | 116° |
| 2026-04-16 10:51 | 50.27219 | 7.07669 | 21125 ft | 423 kts | 116° |
| 2026-04-16 10:51 | 50.25972 | 7.11816 | 20613 ft | 420 kts | 116° |
| 2026-04-16 10:52 | 50.24742 | 7.15921 | 20117 ft | 416 kts | 116° |
| 2026-04-16 10:52 | 50.23521 | 7.19998 | 19593 ft | 413 kts | 116° |
| 2026-04-16 10:52 | 50.22308 | 7.24044 | 19082 ft | 410 kts | 116° |
| 2026-04-16 10:52 | 50.21100 | 7.28064 | 18551 ft | 407 kts | 116° |
| 2026-04-16 10:53 | 50.19900 | 7.32048 | 17981 ft | 404 kts | 116° |
| 2026-04-16 10:53 | 50.18782 | 7.36033 | 17455 ft | 399 kts | 113° |
| 2026-04-16 10:53 | 50.17781 | 7.40033 | 16955 ft | 393 kts | 111° |
| 2026-04-16 10:53 | 50.16854 | 7.44024 | 16435 ft | 389 kts | 110° |
| 2026-04-16 10:54 | 50.15960 | 7.47976 | 15929 ft | 385 kts | 110° |
| 2026-04-16 10:54 | 50.15071 | 7.51892 | 15415 ft | 382 kts | 110° |
| 2026-04-16 10:54 | 50.14175 | 7.55769 | 14918 ft | 378 kts | 111° |
| 2026-04-16 10:54 | 50.13270 | 7.59598 | 14414 ft | 375 kts | 111° |
| 2026-04-16 10:55 | 50.12360 | 7.63388 | 13897 ft | 372 kts | 111° |
| 2026-04-16 10:55 | 50.11437 | 7.67125 | 13368 ft | 367 kts | 115° |
| 2026-04-16 10:55 | 50.10191 | 7.70547 | 13010 ft | 357 kts | 127° |
| 2026-04-16 10:55 | 50.08781 | 7.73673 | 12811 ft | 350 kts | 126° |
| 2026-04-16 10:56 | 50.07399 | 7.76773 | 12579 ft | 347 kts | 126° |
| 2026-04-16 10:56 | 50.06032 | 7.79861 | 12342 ft | 346 kts | 126° |
| 2026-04-16 10:56 | 50.04670 | 7.82935 | 12099 ft | 344 kts | 126° |
| 2026-04-16 10:56 | 50.03314 | 7.85987 | 11873 ft | 343 kts | 126° |
| 2026-04-16 10:57 | 50.01965 | 7.89031 | 11645 ft | 341 kts | 124° |
| 2026-04-16 10:57 | 50.00934 | 7.92341 | 11412 ft | 341 kts | 108° |
| 2026-04-16 10:57 | 50.00480 | 7.95937 | 11185 ft | 339 kts | 93° |
| 2026-04-16 10:57 | 50.00624 | 7.99573 | 11098 ft | 338 kts | 78° |
| 2026-04-16 10:58 | 50.01307 | 8.03050 | 10928 ft | 336 kts | 68° |
| 2026-04-16 10:58 | 50.02140 | 8.06443 | 10755 ft | 335 kts | 68° |
| 2026-04-16 10:58 | 50.02968 | 8.09824 | 10587 ft | 334 kts | 68° |
| 2026-04-16 10:58 | 50.03791 | 8.13192 | 10415 ft | 333 kts | 68° |
| 2026-04-16 10:59 | 50.04611 | 8.16554 | 10248 ft | 331 kts | 68° |
| 2026-04-16 10:59 | 50.05410 | 8.19843 | 10148 ft | 318 kts | 68° |
| 2026-04-16 10:59 | 50.06174 | 8.22994 | 10088 ft | 305 kts | 68° |
| 2026-04-16 10:59 | 50.06915 | 8.26054 | 9862 ft | 299 kts | 68° |
| 2026-04-16 11:00 | 50.07640 | 8.29066 | 9617 ft | 295 kts | 68° |
| 2026-04-16 11:00 | 50.08358 | 8.32051 | 9368 ft | 294 kts | 68° |
| 2026-04-16 11:00 | 50.09076 | 8.35025 | 9149 ft | 293 kts | 68° |
| 2026-04-16 11:00 | 50.09793 | 8.37990 | 8908 ft | 292 kts | 68° |
| 2026-04-16 11:01 | 50.10506 | 8.40945 | 8662 ft | 291 kts | 68° |
| 2026-04-16 11:01 | 50.11215 | 8.43890 | 8463 ft | 290 kts | 68° |
| 2026-04-16 11:01 | 50.11921 | 8.46835 | 8282 ft | 290 kts | 68° |
| 2026-04-16 11:01 | 50.12626 | 8.49780 | 8111 ft | 290 kts | 68° |
| 2026-04-16 11:02 | 50.13327 | 8.52720 | 7912 ft | 289 kts | 68° |
| 2026-04-16 11:02 | 50.14026 | 8.55656 | 7713 ft | 288 kts | 68° |
| 2026-04-16 11:02 | 50.14725 | 8.58583 | 7507 ft | 287 kts | 68° |
| 2026-04-16 11:02 | 50.15421 | 8.61502 | 7319 ft | 286 kts | 69° |
| 2026-04-16 11:03 | 50.16112 | 8.64410 | 7143 ft | 286 kts | 69° |
| 2026-04-16 11:03 | 50.16800 | 8.67313 | 6977 ft | 285 kts | 69° |
| 2026-04-16 11:03 | 50.18161 | 8.73105 | 6627 ft | 284 kts | 69° |
| 2026-04-16 11:04 | 50.18838 | 8.75989 | 6444 ft | 283 kts | 69° |
| 2026-04-16 11:04 | 50.19515 | 8.78866 | 6261 ft | 282 kts | 69° |
| 2026-04-16 11:04 | 50.20193 | 8.81730 | 6078 ft | 281 kts | 69° |
| 2026-04-16 11:04 | 50.20882 | 8.84616 | 5904 ft | 279 kts | 69° |
| 2026-04-16 11:05 | 50.21472 | 8.87489 | 5719 ft | 278 kts | 82° |
| 2026-04-16 11:05 | 50.21320 | 8.90415 | 5565 ft | 275 kts | 110° |
| 2026-04-16 11:05 | 50.20306 | 8.92893 | 5496 ft | 270 kts | 139° |
| 2026-04-16 11:05 | 50.18800 | 8.94471 | 5446 ft | 247 kts | 155° |
| 2026-04-16 11:06 | 50.17219 | 8.95068 | 5395 ft | 235 kts | 186° |
| 2026-04-16 11:06 | 50.15657 | 8.94463 | 5346 ft | 231 kts | 207° |
| 2026-04-16 11:06 | 50.14359 | 8.93035 | 5300 ft | 225 kts | 228° |
| 2026-04-16 11:06 | 50.13516 | 8.91077 | 5244 ft | 213 kts | 248° |
| 2026-04-16 11:07 | 50.13011 | 8.88975 | 5190 ft | 202 kts | 250° |
| 2026-04-16 11:07 | 50.12541 | 8.86966 | 5097 ft | 194 kts | 250° |
| 2026-04-16 11:07 | 50.12079 | 8.84999 | 4891 ft | 193 kts | 250° |
| 2026-04-16 11:07 | 50.11615 | 8.83029 | 4618 ft | 195 kts | 250° |
| 2026-04-16 11:08 | 50.11147 | 8.81041 | 4333 ft | 196 kts | 250° |
| 2026-04-16 11:08 | 50.10672 | 8.79028 | 4047 ft | 200 kts | 250° |
| 2026-04-16 11:08 | 50.10190 | 8.76986 | 3768 ft | 202 kts | 250° |
| 2026-04-16 11:08 | 50.09703 | 8.74928 | 3478 ft | 203 kts | 250° |
| 2026-04-16 11:09 | 50.09214 | 8.72857 | 3181 ft | 204 kts | 250° |
| 2026-04-16 11:09 | 50.08730 | 8.70816 | 2886 ft | 197 kts | 250° |
| 2026-04-16 11:09 | 50.08278 | 8.68909 | 2624 ft | 177 kts | 250° |
| 2026-04-16 11:09 | 50.07871 | 8.67193 | 2376 ft | 162 kts | 249° |
| 2026-04-16 11:10 | 50.07493 | 8.65602 | 2154 ft | 152 kts | 249° |
| 2026-04-16 11:10 | 50.07131 | 8.64079 | 1952 ft | 141 kts | 249° |
| 2026-04-16 11:10 | 50.06806 | 8.62704 | 1746 ft | 135 kts | 250° |
| 2026-04-16 11:10 | 50.06484 | 8.61340 | 1533 ft | 131 kts | 249° |
| 2026-04-16 11:11 | 50.06176 | 8.60043 | 1363 ft | 128 kts | 249° |
| 2026-04-16 11:11 | 50.05867 | 8.58737 | 1126 ft | 128 kts | 249° |
| 2026-04-16 11:11 | 50.05555 | 8.57434 | 935 ft | 129 kts | 249° |
| 2026-04-16 11:11 | 50.05241 | 8.56116 | 751 ft | 131 kts | 249° |
| 2026-04-16 11:12 | 50.05030 | 8.55217 | 643 ft | 131 kts | 248° |
| 2026-04-16 11:12 | 50.04706 | 8.53878 | 479 ft | 132 kts | 249° |
| 2026-04-16 11:12 | 50.04385 | 8.52541 | 359 ft | 126 kts | 248° |
| 2026-04-16 11:12 | 50.04121 | 8.51447 | 329 ft | 84 kts | 249° |
| 2026-04-16 11:13 | 50.03971 | 8.50820 | 324 ft | 48 kts | 250° |
| 2026-04-16 11:13 | 50.03873 | 8.50463 | 322 ft | 26 kts | 237° |
| 2026-04-16 11:13 | 50.03743 | 8.50256 | 319 ft | 26 kts | 218° |
| 2026-04-16 11:13 | 50.03642 | 8.50191 | 323 ft | 13 kts | 153° |
| 2026-04-16 11:14 | 50.03635 | 8.50317 | 326 ft | 13 kts | 69° |
| 2026-04-16 11:14 | 50.03671 | 8.50465 | 326 ft | 17 kts | 69° |
| 2026-04-16 11:14 | 50.03718 | 8.50663 | 330 ft | 22 kts | 69° |
| 2026-04-16 11:14 | 50.03779 | 8.50914 | 334 ft | 27 kts | 69° |
| 2026-04-16 11:15 | 50.03849 | 8.51208 | 336 ft | 29 kts | 69° |
| 2026-04-16 11:15 | 50.03917 | 8.51489 | 333 ft | 24 kts | 69° |
| 2026-04-16 11:15 | 50.03978 | 8.51741 | 336 ft | 26 kts | 69° |
| 2026-04-16 11:15 | 50.04035 | 8.51983 | 338 ft | 22 kts | 70° |
| 2026-04-16 11:16 | 50.04089 | 8.52210 | 349 ft | 23 kts | 69° |
| 2026-04-16 11:16 | 50.04147 | 8.52451 | 350 ft | 24 kts | 70° |
| 2026-04-16 11:16 | 50.04207 | 8.52706 | 354 ft | 26 kts | 70° |
| 2026-04-16 11:16 | 50.04270 | 8.52968 | 358 ft | 26 kts | 69° |
| 2026-04-16 11:17 | 50.04331 | 8.53226 | 364 ft | 24 kts | 70° |
| 2026-04-16 11:17 | 50.04383 | 8.53444 | 373 ft | 19 kts | 71° |
| 2026-04-16 11:17 | 50.04403 | 8.53644 | 375 ft | 19 kts | 84° |
| 2026-04-16 11:17 | 50.04417 | 8.53858 | 375 ft | 21 kts | 84° |
| 2026-04-16 11:18 | 50.04433 | 8.54088 | 375 ft | 22 kts | 84° |
| 2026-04-16 11:18 | 50.04448 | 8.54304 | 375 ft | 17 kts | 84° |
| 2026-04-16 11:18 | 50.04447 | 8.54511 | 368 ft | 22 kts | 103° |
| 2026-04-16 11:18 | 50.04378 | 8.54700 | 361 ft | 21 kts | 134° |
| 2026-04-16 11:19 | 50.04233 | 8.54818 | 357 ft | 22 kts | 159° |
| 2026-04-16 11:19 | 50.04098 | 8.54894 | 350 ft | 13 kts | 159° |
| 2026-04-16 11:19 | 50.04019 | 8.54953 | 357 ft | 12 kts | 132° |
| 2026-04-16 11:19 | 50.04033 | 8.55072 | 360 ft | 12 kts | 70° |
| 2026-04-16 11:20 | 50.04062 | 8.55201 | 356 ft | 13 kts | 70° |
| 2026-04-16 11:20 | 50.04096 | 8.55351 | 353 ft | 16 kts | 69° |
| 2026-04-16 11:20 | 50.04140 | 8.55527 | 361 ft | 18 kts | 69° |
| 2026-04-16 11:20 | 50.04187 | 8.55722 | 360 ft | 20 kts | 69° |
| 2026-04-16 11:21 | 50.04236 | 8.55931 | 356 ft | 21 kts | 71° |
| 2026-04-16 11:21 | 50.04289 | 8.56147 | 359 ft | 22 kts | 72° |
| 2026-04-16 11:21 | 50.04332 | 8.56380 | 358 ft | 23 kts | 64° |
| 2026-04-16 11:21 | 50.04400 | 8.56610 | 360 ft | 24 kts | 70° |
| 2026-04-16 11:22 | 50.04451 | 8.56828 | 363 ft | 22 kts | 69° |
| 2026-04-16 11:22 | 50.04507 | 8.57062 | 363 ft | 25 kts | 69° |
| 2026-04-16 11:22 | 50.04565 | 8.57300 | 358 ft | 21 kts | 70° |
| 2026-04-16 11:22 | 50.04614 | 8.57510 | 364 ft | 21 kts | 71° |
| 2026-04-16 11:23 | 50.04667 | 8.57735 | 359 ft | 23 kts | 70° |
| 2026-04-16 11:23 | 50.04720 | 8.57910 | 362 ft | 15 kts | 47° |
| 2026-04-16 11:23 | 50.04791 | 8.58015 | 360 ft | 15 kts | 57° |
| 2026-04-16 11:23 | 50.04832 | 8.58173 | 366 ft | 16 kts | 70° |
| 2026-04-16 11:24 | 50.04869 | 8.58329 | 361 ft | 16 kts | 69° |
| 2026-04-16 11:24 | 50.04895 | 8.58432 | 361 ft | 9 kts | 69° |
| 2026-04-16 11:24 | 50.04938 | 8.58464 | 359 ft | 8 kts | 341° |
| 2026-04-16 11:24 | 50.04975 | 8.58443 | 363 ft | 6 kts | 339° |
| 2026-04-16 11:25 | 50.04998 | 8.58429 | 360 ft | 1 kts | 340° |
| 2026-04-16 11:25 | 50.05000 | 8.58429 | 362 ft | 0 kts | 340° |